Time;durP1;ratioP1;P1;durP2;ratioP2;P2;SDS_P1;SDS_P2;PMS_P1;PMS_P2;Temp;Humidity;BMP_temperature;BMP_pressure;BME280_temperature;BME280_humidity;BME280_pressure;Samples;Min_cycle;Max_cycle;Signal;HPM_P1;HPM_P2
2021/09/25 00:00:11;;;;;;;0.40;0.20;;;;;;;11.69;100.00;100364.09;5000445;28;20464;-54
2021/09/25 00:02:38;;;;;;;0.40;0.20;;;;;;;11.65;100.00;100359.78;5002760;28;20809;-54
2021/09/25 00:05:06;;;;;;;5.83;1.80;;;;;;;11.75;100.00;100357.69;5007077;28;20532;-54
2021/09/25 00:07:33;;;;;;;0.30;0.20;;;;;;;11.66;100.00;100355.34;5005228;28;20460;-55
2021/09/25 00:09:59;;;;;;;0.40;0.33;;;;;;;11.73;100.00;100352.41;5000107;28;20457;-54
2021/09/25 00:12:26;;;;;;;0.30;0.20;;;;;;;11.72;100.00;100352.47;5002371;28;20938;-54
2021/09/25 00:14:52;;;;;;;0.30;0.20;;;;;;;11.75;100.00;100345.25;5006530;28;20971;-54
2021/09/25 00:17:19;;;;;;;0.30;0.20;;;;;;;11.63;100.00;100350.09;5004960;28;20460;-54
2021/09/25 00:19:45;;;;;;;0.30;0.20;;;;;;;11.53;100.00;100352.19;5000129;28;21008;-54
2021/09/25 00:22:12;;;;;;;0.40;0.30;;;;;;;11.42;100.00;100357.84;5001818;28;20477;-54
2021/09/25 00:24:39;;;;;;;0.40;0.20;;;;;;;11.47;100.00;100352.38;5006802;28;20508;-55
2021/09/25 00:27:06;;;;;;;0.30;0.20;;;;;;;11.40;100.00;100359.69;5005369;28;20506;-54
2021/09/25 00:29:32;;;;;;;0.30;0.20;;;;;;;11.47;100.00;100361.22;4999812;28;20993;-54
2021/09/25 00:32:00;;;;;;;0.30;0.20;;;;;;;11.35;100.00;100361.59;5000435;28;20449;-54
2021/09/25 00:34:27;;;;;;;0.30;0.20;;;;;;;11.29;100.00;100359.13;5006262;28;20851;-54
2021/09/25 00:36:53;;;;;;;0.30;0.20;;;;;;;11.27;100.00;100364.50;5005636;28;20456;-54
2021/09/25 00:39:20;;;;;;;0.40;0.20;;;;;;;11.28;100.00;100355.59;4998445;28;20449;-54
2021/09/25 00:41:47;;;;;;;0.30;0.20;;;;;;;11.44;100.00;100344.47;5000913;28;20512;-54
2021/09/25 00:44:13;;;;;;;0.30;0.20;;;;;;;11.22;100.00;100360.22;5006060;28;20474;-54
2021/09/25 00:46:40;;;;;;;0.30;0.20;;;;;;;11.37;100.00;100367.75;5005735;28;20453;-54
2021/09/25 00:49:07;;;;;;;0.30;0.20;;;;;;;11.32;100.00;100361.69;4999723;28;20498;-54
2021/09/25 00:51:33;;;;;;;0.40;0.30;;;;;;;11.14;100.00;100363.13;5006542;28;20815;-54
2021/09/25 00:54:00;;;;;;;0.30;0.30;;;;;;;11.10;100.00;100360.59;5005639;28;20473;-53
2021/09/25 00:56:27;;;;;;;0.30;0.20;;;;;;;11.15;100.00;100362.22;5005297;28;20556;-54
2021/09/25 00:58:54;;;;;;;0.30;0.20;;;;;;;11.12;100.00;100358.78;5005415;28;20450;-55
2021/09/25 01:01:21;;;;;;;0.30;0.20;;;;;;;11.06;100.00;100357.16;5006528;28;20484;-54
2021/09/25 01:03:48;;;;;;;0.40;0.30;;;;;;;11.10;100.00;100361.50;5000433;28;20476;-55
2021/09/25 01:06:14;;;;;;;0.30;0.20;;;;;;;11.05;100.00;100365.19;4999579;28;20902;-54
2021/09/25 01:08:41;;;;;;;0.30;0.20;;;;;;;10.96;100.00;100364.56;5005095;28;20481;-54
2021/09/25 01:11:08;;;;;;;2.63;1.80;;;;;;;10.94;100.00;100366.34;5005833;28;20475;-54
2021/09/25 01:13:34;;;;;;;0.30;0.20;;;;;;;10.94;100.00;100362.81;5000698;28;21024;-53
2021/09/25 01:16:01;;;;;;;22.27;1.60;;;;;;;10.92;100.00;100362.00;4997992;28;20493;-54
2021/09/25 01:18:33;;;;;;;0.30;0.20;;;;;;;10.85;100.00;100363.97;5003673;28;20537;-54
2021/09/25 01:21:09;;;;;;;0.30;0.20;;;;;;;10.93;100.00;100367.28;5005989;28;20452;-54
2021/09/25 01:23:37;;;;;;;0.30;0.20;;;;;;;10.92;100.00;100364.66;5003204;28;20511;-54
2021/09/25 01:26:04;;;;;;;0.30;0.20;;;;;;;10.82;100.00;100365.84;4999159;28;20871;-54
2021/09/25 01:28:33;;;;;;;0.30;0.20;;;;;;;10.93;100.00;100363.75;5001900;28;20500;-54
2021/09/25 01:31:01;;;;;;;0.30;0.20;;;;;;;10.93;100.00;100361.09;5010058;28;20453;-54
2021/09/25 01:33:34;;;;;;;0.30;0.20;;;;;;;10.79;100.00;100353.50;5007968;28;20456;-54
2021/09/25 01:36:01;;;;;;;0.30;0.20;;;;;;;10.64;100.00;100353.94;5002975;28;20496;-54
2021/09/25 01:38:28;;;;;;;0.30;0.20;;;;;;;10.75;100.00;100353.66;5002799;28;20453;-54
2021/09/25 01:40:55;;;;;;;0.30;0.20;;;;;;;10.90;100.00;100355.84;5010196;28;20484;-54
2021/09/25 01:43:21;;;;;;;0.30;0.20;;;;;;;10.85;100.00;100353.34;5009081;28;20452;-54
2021/09/25 01:45:48;;;;;;;0.30;0.20;;;;;;;10.72;100.00;100353.72;5003172;28;20494;-54
2021/09/25 01:48:16;;;;;;;0.30;0.20;;;;;;;10.73;100.00;100353.69;5003544;28;20943;-54
2021/09/25 01:50:43;;;;;;;0.30;0.20;;;;;;;10.57;100.00;100345.28;5009681;28;20476;-54
2021/09/25 01:53:09;;;;;;;0.30;0.20;;;;;;;10.79;100.00;100353.50;5015623;28;20483;-54
2021/09/25 01:55:36;;;;;;;1.90;1.90;;;;;;;10.71;100.00;100360.84;5003651;28;20499;-53
2021/09/25 01:58:03;;;;;;;0.30;0.20;;;;;;;10.55;100.00;100348.88;5013945;28;20503;-54
2021/09/25 02:00:33;;;;;;;0.30;0.20;;;;;;;10.60;100.00;100360.25;5003719;28;20507;-54
2021/09/25 02:03:04;;;;;;;0.57;0.57;;;;;;;10.34;100.00;100369.81;5002601;28;20974;-53
2021/09/25 02:05:31;;;;;;;0.30;0.20;;;;;;;10.34;100.00;100361.84;5007030;28;20462;-53
2021/09/25 02:07:58;;;;;;;0.30;0.20;;;;;;;10.48;100.00;100361.47;5008965;28;20484;-54
2021/09/25 02:10:24;;;;;;;0.30;0.20;;;;;;;10.47;100.00;100361.50;5004788;28;20456;-53
2021/09/25 02:12:51;;;;;;;0.30;0.20;;;;;;;10.50;100.00;100353.44;5000270;28;20449;-54
2021/09/25 02:15:18;;;;;;;0.30;0.20;;;;;;;10.53;100.00;100361.31;5004662;28;20496;-53
2021/09/25 02:17:45;;;;;;;0.30;0.20;;;;;;;10.49;100.00;100360.53;5002291;28;20837;-54
2021/09/25 02:20:12;;;;;;;0.30;0.20;;;;;;;10.46;100.00;100367.75;5006266;28;20453;-54
2021/09/25 02:22:40;;;;;;;0.30;0.20;;;;;;;10.46;100.00;100370.41;5009291;28;20454;-54
2021/09/25 02:25:09;;;;;;;0.30;0.20;;;;;;;10.38;100.00;100371.44;5005618;28;20461;-54
2021/09/25 02:27:40;;;;;;;0.30;0.20;;;;;;;10.29;100.00;100357.56;5002193;28;20476;-54
2021/09/25 02:30:16;;;;;;;0.30;0.20;;;;;;;10.26;100.00;100357.63;5005553;28;20941;-54
2021/09/25 02:32:43;;;;;;;0.30;0.20;;;;;;;10.35;100.00;100355.59;5002036;28;20510;-54
2021/09/25 02:35:12;;;;;;;0.30;0.20;;;;;;;10.30;100.00;100346.03;5003226;28;21029;-55
2021/09/25 02:37:39;;;;;;;0.30;0.20;;;;;;;10.36;100.00;100352.03;5008813;28;20804;-54
2021/09/25 02:40:07;;;;;;;0.30;0.20;;;;;;;10.56;100.00;100363.94;5007180;28;20452;-54
2021/09/25 02:42:34;;;;;;;0.40;0.30;;;;;;;10.43;100.00;100359.84;5001659;28;20452;-54
2021/09/25 02:45:00;;;;;;;0.30;0.20;;;;;;;10.38;100.00;100357.31;5002299;28;20497;-54
2021/09/25 02:47:27;;;;;;;0.30;0.20;;;;;;;10.39;100.00;100362.56;5008821;28;20450;-54
2021/09/25 02:49:54;;;;;;;0.30;0.20;;;;;;;10.43;100.00;100359.84;5002457;28;20476;-54
2021/09/25 02:52:20;;;;;;;0.30;0.20;;;;;;;10.40;100.00;100366.09;4989311;28;20484;-54
2021/09/25 02:54:47;;;;;;;0.30;0.20;;;;;;;10.21;100.00;100359.50;5001475;28;20535;-55
2021/09/25 02:57:14;;;;;;;0.40;0.30;;;;;;;10.27;100.00;100367.31;5012199;28;20460;-54
2021/09/25 02:59:40;;;;;;;0.30;0.20;;;;;;;10.24;100.00;100365.63;5001652;28;20500;-54
2021/09/25 03:02:07;;;;;;;0.30;0.20;;;;;;;10.30;100.00;100373.47;5008098;28;20508;-53
2021/09/25 03:04:34;;;;;;;0.30;0.20;;;;;;;10.31;100.00;100372.53;5008187;28;20472;-54
2021/09/25 03:07:00;;;;;;;0.30;0.20;;;;;;;10.37;100.00;100360.88;5002290;28;20824;-54
2021/09/25 03:09:27;;;;;;;0.30;0.20;;;;;;;10.32;100.00;100370.75;5000400;28;20485;-54
2021/09/25 03:11:54;;;;;;;0.30;0.20;;;;;;;10.25;100.00;100369.16;5007166;28;20484;-53
2021/09/25 03:14:20;;;;;;;0.30;0.20;;;;;;;10.16;100.00;100362.28;5007624;28;21043;-54
2021/09/25 03:16:47;;;;;;;0.30;0.20;;;;;;;10.17;100.00;100356.06;5002476;28;20488;-54
2021/09/25 03:19:14;;;;;;;0.30;0.20;;;;;;;10.07;100.00;100357.19;5001248;28;20971;-54
2021/09/25 03:21:40;;;;;;;0.30;0.20;;;;;;;10.01;100.00;100360.03;5006984;28;20499;-53
2021/09/25 03:24:07;;;;;;;0.30;0.20;;;;;;;10.10;100.00;100349.16;5007688;28;20477;-54
2021/09/25 03:26:34;;;;;;;0.30;0.20;;;;;;;10.10;100.00;100351.81;5002603;28;20457;-55
2021/09/25 03:29:01;;;;;;;0.30;0.20;;;;;;;10.17;100.00;100356.06;5001127;28;20955;-54
2021/09/25 03:31:27;;;;;;;0.30;0.20;;;;;;;10.23;100.00;100355.91;5006134;28;20449;-54
2021/09/25 03:33:54;;;;;;;0.30;0.20;;;;;;;10.07;100.00;100359.84;5007663;28;20552;-54
2021/09/25 03:36:21;;;;;;;0.30;0.20;;;;;;;9.85;100.00;100358.63;5003399;28;20488;-54
2021/09/25 03:38:47;;;;;;;0.30;0.20;;;;;;;9.87;100.00;100364.78;5001005;28;20840;-54
2021/09/25 03:41:14;;;;;;;0.30;0.20;;;;;;;9.91;100.00;100361.16;5005364;28;20516;-55
2021/09/25 03:43:41;;;;;;;0.30;0.20;;;;;;;9.82;100.00;100354.28;5007670;28;20859;-54
2021/09/25 03:46:07;;;;;;;0.30;0.20;;;;;;;9.82;100.00;100356.94;5003555;28;20445;-54
2021/09/25 03:48:34;;;;;;;0.30;0.20;;;;;;;9.81;100.00;100365.81;5000571;28;20463;-54
2021/09/25 03:51:01;;;;;;;0.30;0.20;;;;;;;9.86;100.00;100360.38;5007879;28;20468;-54
2021/09/25 03:53:27;;;;;;;0.30;0.20;;;;;;;9.75;100.00;100363.31;5000145;28;20488;-55
2021/09/25 03:55:54;;;;;;;0.30;0.20;;;;;;;9.80;100.00;100356.97;5013647;28;20543;-54
2021/09/25 03:58:20;;;;;;;0.30;0.20;;;;;;;9.77;100.00;100348.22;5009491;28;20492;-54
2021/09/25 04:00:47;;;;;;;0.30;0.20;;;;;;;9.82;100.00;100351.63;5003579;28;20510;-54
2021/09/25 04:03:13;;;;;;;0.30;0.20;;;;;;;9.77;100.00;100361.50;5000332;28;20946;-54
2021/09/25 04:05:40;;;;;;;0.30;0.20;;;;;;;9.84;100.00;100359.53;5004281;28;20456;-54
2021/09/25 04:08:07;;;;;;;1.53;1.53;;;;;;;9.68;100.00;100365.22;5007159;28;20465;-54
2021/09/25 04:10:34;;;;;;;0.30;0.20;;;;;;;9.68;100.00;100354.59;5003321;28;20480;-54
2021/09/25 04:13:01;;;;;;;0.40;0.40;;;;;;;9.63;100.00;100367.13;4997433;28;20851;-54
2021/09/25 04:15:28;;;;;;;0.30;0.20;;;;;;;9.59;100.00;100351.28;5002925;28;20563;-54
2021/09/25 04:17:55;;;;;;;0.30;0.20;;;;;;;9.61;100.00;100360.13;5000125;28;21588;-54
2021/09/25 04:20:21;;;;;;;0.30;0.20;;;;;;;9.58;100.00;100353.06;5004019;28;20457;-54
2021/09/25 04:22:48;;;;;;;0.40;0.30;;;;;;;9.71;100.00;100366.94;5006727;28;20515;-54
2021/09/25 04:25:15;;;;;;;0.50;0.50;;;;;;;9.74;100.00;100362.44;5002748;28;21036;-54
2021/09/25 04:27:42;;;;;;;0.30;0.20;;;;;;;9.58;100.00;100355.72;5000313;28;20449;-54
2021/09/25 04:30:09;;;;;;;0.30;0.20;;;;;;;9.62;100.00;100368.03;5004523;28;20485;-54
2021/09/25 04:32:36;;;;;;;0.30;0.20;;;;;;;9.56;100.00;100367.28;4999812;28;20487;-54
2021/09/25 04:35:02;;;;;;;0.40;0.30;;;;;;;9.26;100.00;100359.13;5003333;28;20478;-54
2021/09/25 04:37:29;;;;;;;0.30;0.20;;;;;;;9.30;100.00;100365.22;5006436;28;20990;-54
2021/09/25 04:39:55;;;;;;;0.30;0.20;;;;;;;9.38;100.00;100360.63;5003820;28;20476;-54
2021/09/25 04:42:22;;;;;;;0.30;0.20;;;;;;;9.39;100.00;100359.72;4999893;28;20452;-55
2021/09/25 04:44:49;;;;;;;0.30;0.20;;;;;;;9.46;100.00;100353.38;5002448;28;20477;-54
2021/09/25 04:47:15;;;;;;;0.30;0.20;;;;;;;9.47;100.00;100350.69;5006331;28;20939;-55
2021/09/25 04:49:42;;;;;;;0.30;0.20;;;;;;;9.48;100.00;100351.56;4999627;28;20453;-54
2021/09/25 04:52:08;;;;;;;0.30;0.20;;;;;;;9.54;100.00;100346.09;5011318;28;20507;-54
2021/09/25 04:54:35;;;;;;;0.33;0.20;;;;;;;9.49;100.00;100350.66;5001264;28;20532;-54
2021/09/25 04:57:02;;;;;;;0.40;0.30;;;;;;;9.46;100.00;100348.97;5009826;28;20488;-54
2021/09/25 04:59:29;;;;;;;0.30;0.20;;;;;;;9.43;100.00;100346.34;4999751;28;20489;-54
2021/09/25 05:01:55;;;;;;;0.30;0.20;;;;;;;9.58;100.00;100350.41;5005035;28;20985;-54
2021/09/25 05:04:22;;;;;;;0.30;0.20;;;;;;;9.58;100.00;100347.78;5004228;28;20547;-55
2021/09/25 05:06:49;;;;;;;0.30;0.20;;;;;;;9.40;100.00;100354.38;4999222;28;20449;-54
2021/09/25 05:09:18;;;;;;;0.30;0.20;;;;;;;9.49;100.00;100355.97;5000439;28;20942;-54
2021/09/25 05:11:45;;;;;;;1.13;1.03;;;;;;;9.45;100.00;100346.31;5005790;28;20449;-54
2021/09/25 05:14:12;;;;;;;0.30;0.20;;;;;;;9.35;100.00;100352.75;5015165;22;21009;-52
2021/09/25 05:16:38;;;;;;;0.30;0.20;;;;;;;9.39;100.00;100350.00;5012306;28;20605;-52
2021/09/25 05:19:05;;;;;;;0.30;0.20;;;;;;;9.47;100.00;100357.78;5012516;28;20455;-51
2021/09/25 05:21:32;;;;;;;0.30;0.20;;;;;;;9.49;100.00;100353.31;5012660;28;20548;-52
2021/09/25 05:24:01;;;;;;;0.30;0.20;;;;;;;9.45;100.00;100359.56;5012449;28;20877;-52
2021/09/25 05:26:32;;;;;;;0.30;0.20;;;;;;;9.55;100.00;100355.81;5000642;28;20441;-52
2021/09/25 05:28:58;;;;;;;0.30;0.20;;;;;;;9.62;100.00;100365.38;4999085;28;20453;-52
2021/09/25 05:31:25;;;;;;;0.40;0.40;;;;;;;9.77;100.00;100367.66;5004901;28;20484;-52
2021/09/25 05:33:51;;;;;;;0.30;0.20;;;;;;;9.76;100.00;100365.94;5005890;28;20937;-52
2021/09/25 05:36:18;;;;;;;0.40;0.40;;;;;;;9.78;100.00;100372.06;5000556;28;20488;-52
2021/09/25 05:38:45;;;;;;;0.30;0.20;;;;;;;9.85;100.00;100374.56;4999158;28;20449;-52
2021/09/25 05:41:11;;;;;;;0.97;0.97;;;;;;;9.77;100.00;100380.06;5004706;28;20988;-52
2021/09/25 05:43:38;;;;;;;0.33;0.27;;;;;;;9.45;100.00;100375.50;5005770;28;20495;-52
2021/09/25 05:46:04;;;;;;;0.67;0.67;;;;;;;9.41;100.00;100387.97;5000346;28;20464;-52
2021/09/25 05:48:33;;;;;;;0.30;0.20;;;;;;;9.37;100.00;100386.28;4999038;28;20457;-52
2021/09/25 05:51:01;;;;;;;0.57;0.57;;;;;;;9.62;100.00;100381.31;5006346;28;20448;-52
2021/09/25 05:53:27;;;;;;;0.30;0.20;;;;;;;9.79;100.00;100372.94;5009664;28;20456;-52
2021/09/25 05:55:54;;;;;;;1.80;1.80;;;;;;;9.74;100.00;100370.41;5001489;28;21047;-52
2021/09/25 05:58:21;;;;;;;1.27;1.17;;;;;;;9.93;100.00;100383.22;5007813;28;20448;-52
2021/09/25 06:00:48;;;;;;;0.30;0.20;;;;;;;9.92;100.00;100377.03;5001858;28;20836;-52
2021/09/25 06:03:15;;;;;;;0.30;0.20;;;;;;;9.90;100.00;100362.94;4998843;28;20934;-52
2021/09/25 06:05:42;;;;;;;0.30;0.20;;;;;;;9.93;100.00;100364.63;5002381;28;20512;-52
2021/09/25 06:08:09;;;;;;;0.30;0.20;;;;;;;10.06;100.00;100360.78;5005629;28;20449;-52
2021/09/25 06:10:36;;;;;;;0.30;0.20;;;;;;;10.08;100.00;100377.53;5002579;28;20485;-52
2021/09/25 06:13:03;;;;;;;0.30;0.20;;;;;;;10.02;100.00;100375.91;4998754;28;20534;-51
2021/09/25 06:15:30;;;;;;;0.30;0.20;;;;;;;10.17;100.00;100379.97;5003311;28;20554;-52
2021/09/25 06:17:57;;;;;;;0.30;0.20;;;;;;;10.27;100.00;100375.31;5008905;28;21348;-52
2021/09/25 06:20:24;;;;;;;0.40;0.30;;;;;;;10.34;100.00;100375.13;5006281;28;20455;-52
2021/09/25 06:22:50;;;;;;;0.40;0.40;;;;;;;10.46;100.00;100381.03;5002669;28;20514;-52
2021/09/25 06:25:17;;;;;;;0.40;0.30;;;;;;;10.56;100.00;100378.09;5005038;28;20896;-52
2021/09/25 06:27:44;;;;;;;0.30;0.30;;;;;;;10.65;100.00;100388.44;5009273;28;20508;-52
2021/09/25 06:30:11;;;;;;;2.07;1.30;;;;;;;10.65;100.00;100382.25;5006213;28;20452;-52
2021/09/25 06:32:38;;;;;;;0.30;0.20;;;;;;;10.58;100.00;100383.34;5002205;28;20483;-52
2021/09/25 06:35:06;;;;;;;2.00;2.00;;;;;;;10.68;100.00;100380.38;5004511;28;21009;-53
2021/09/25 06:37:32;;;;;;;0.30;0.20;;;;;;;10.80;100.00;100379.16;5008907;28;20493;-52
2021/09/25 06:39:59;;;;;;;0.30;0.20;;;;;;;11.00;100.00;100381.28;5007142;28;20491;-61
2021/09/25 06:42:26;;;;;;;0.40;0.30;;;;;;;11.11;100.00;100380.97;5002072;28;20870;-52
2021/09/25 06:44:52;;;;;;;0.30;0.20;;;;;;;11.16;100.00;100387.03;5004324;28;20501;-52
2021/09/25 06:47:19;;;;;;;0.30;0.20;;;;;;;11.15;100.00;100382.63;5008661;28;20449;-52
2021/09/25 06:49:46;;;;;;;0.63;0.60;;;;;;;11.39;100.00;100378.38;5002117;28;21014;-52
2021/09/25 06:52:12;;;;;;;0.30;0.20;;;;;;;11.43;100.00;100372.88;5014053;28;20996;-53
2021/09/25 06:54:39;;;;;;;0.60;0.60;;;;;;;11.52;100.00;100375.28;5003361;28;20474;-52
2021/09/25 06:57:07;;;;;;;0.30;0.20;;;;;;;11.58;100.00;100367.09;5013111;28;20527;-52
2021/09/25 06:59:33;;;;;;;0.30;0.20;;;;;;;11.46;100.00;100367.47;5002103;28;20449;-52
2021/09/25 07:02:01;;;;;;;0.30;0.20;;;;;;;11.43;100.00;100361.38;5008641;28;20873;-52
2021/09/25 07:04:28;;;;;;;0.30;0.30;;;;;;;11.62;100.00;100364.31;5008340;28;20570;-52
2021/09/25 07:06:54;;;;;;;0.30;0.20;;;;;;;11.66;100.00;100372.19;4989087;28;20937;-52
2021/09/25 07:09:21;;;;;;;0.30;0.20;;;;;;;11.79;100.00;100370.91;5001477;28;20958;-52
2021/09/25 07:11:47;;;;;;;0.80;0.77;;;;;;;11.88;100.00;100372.38;5007795;28;20450;-52
2021/09/25 07:14:14;;;;;;;0.30;0.20;;;;;;;11.83;100.00;100383.19;5007979;28;20538;-52
2021/09/25 07:16:41;;;;;;;6.53;0.60;;;;;;;11.95;100.00;100384.59;5002510;28;20503;-52
2021/09/25 07:19:09;;;;;;;0.33;0.27;;;;;;;12.01;100.00;100391.50;5001302;28;20489;-52
2021/09/25 07:21:36;;;;;;;2.63;0.73;;;;;;;12.01;100.00;100403.03;5007224;28;20456;-52
2021/09/25 07:24:03;;;;;;;0.30;0.20;;;;;;;12.13;100.00;100388.44;5007825;28;20539;-52
2021/09/25 07:26:29;;;;;;;1.27;1.27;;;;;;;12.10;100.00;100394.75;5001682;28;20831;-52
2021/09/25 07:28:56;;;;;;;0.30;0.20;;;;;;;12.05;100.00;100395.78;5001126;28;20449;-52
2021/09/25 07:31:23;;;;;;;0.30;0.20;;;;;;;12.07;100.00;100386.00;5006665;28;20481;-52
2021/09/25 07:33:49;;;;;;;0.53;0.53;;;;;;;12.03;100.00;100393.19;5007785;28;20555;-52
2021/09/25 07:36:16;;;;;;;0.30;0.20;;;;;;;12.11;100.00;100399.16;5002239;28;20538;-52
2021/09/25 07:38:43;;;;;;;0.33;0.20;;;;;;;12.36;100.00;100401.88;5000691;28;20454;-52
2021/09/25 07:41:10;;;;;;;0.30;0.20;;;;;;;12.45;100.00;100400.66;5005382;28;20454;-52
2021/09/25 07:43:36;;;;;;;0.30;0.30;;;;;;;12.29;100.00;100407.44;5007900;28;20503;-52
2021/09/25 07:46:03;;;;;;;0.40;0.33;;;;;;;12.45;100.00;100406.00;5002267;28;21040;-52
2021/09/25 07:48:30;;;;;;;0.30;0.20;;;;;;;12.49;100.00;100412.97;5001550;28;20449;-52
2021/09/25 07:50:56;;;;;;;0.30;0.20;;;;;;;12.56;100.00;100419.81;5006697;28;20857;-51
2021/09/25 07:53:23;;;;;;;1.17;1.17;;;;;;;12.68;100.00;100419.41;5011661;28;20553;-52
2021/09/25 07:55:49;;;;;;;0.30;0.20;;;;;;;12.81;100.00;100417.19;5002912;28;20472;-52
2021/09/25 07:58:16;;;;;;;0.40;0.20;;;;;;;12.80;100.00;100415.44;5010009;28;20544;-52
2021/09/25 08:00:43;;;;;;;0.50;0.50;;;;;;;12.68;100.00;100416.75;5002935;28;20448;-52
2021/09/25 08:03:10;;;;;;;4.67;1.17;;;;;;;13.05;100.00;100431.44;5001004;28;20488;-52
2021/09/25 08:05:37;;;;;;;0.70;0.60;;;;;;;12.89;100.00;100428.47;5003410;28;20469;-53
2021/09/25 08:08:04;;;;;;;0.30;0.20;;;;;;;13.05;100.00;100428.78;5007192;28;20546;-52
2021/09/25 08:10:31;;;;;;;0.30;0.20;;;;;;;12.94;100.00;100422.94;5004052;28;20453;-52
2021/09/25 08:12:58;;;;;;;0.30;0.30;;;;;;;13.20;100.00;100419.34;5000472;28;20869;-52
2021/09/25 08:15:41;;;;;;;0.47;0.47;;;;;;;13.29;100.00;100419.00;5001755;28;20508;-57
2021/09/25 08:18:08;;;;;;;0.30;0.20;;;;;;;13.22;100.00;100429.03;5010408;28;20525;-53
2021/09/25 08:20:35;;;;;;;0.80;0.80;;;;;;;13.40;100.00;100426.59;5006161;28;20476;-53
2021/09/25 08:23:02;;;;;;;0.40;0.40;;;;;;;13.44;100.00;100425.59;4999955;28;20449;-52
2021/09/25 08:25:28;;;;;;;0.30;0.20;;;;;;;13.43;100.00;100421.13;5001114;28;21002;-53
2021/09/25 08:27:55;;;;;;;0.33;0.23;;;;;;;13.50;100.00;100420.00;5006966;28;20477;-53
2021/09/25 08:30:24;;;;;;;0.30;0.20;;;;;;;13.71;100.00;100419.16;5006026;28;20536;-53
2021/09/25 08:32:54;;;;;;;0.83;0.83;;;;;;;13.84;100.00;100417.75;4999800;28;20819;-52
2021/09/25 08:35:22;;;;;;;0.30;0.20;;;;;;;14.01;100.00;100414.41;5000185;28;20512;-52
2021/09/25 08:37:49;;;;;;;0.80;0.80;;;;;;;14.30;100.00;100420.34;5006329;28;20560;-54
2021/09/25 08:40:21;;;;;;;0.50;0.37;;;;;;;14.71;100.00;100427.50;5006470;28;20452;-53
2021/09/25 08:42:50;;;;;;;2.30;2.30;;;;;;;15.01;100.00;100427.09;5001726;28;20444;-53
2021/09/25 08:45:17;;;;;;;0.40;0.30;;;;;;;14.98;100.00;100425.44;4999599;28;20534;-53
2021/09/25 08:47:44;;;;;;;0.33;0.20;;;;;;;15.31;100.00;100419.47;5004446;28;20453;-54
2021/09/25 08:50:13;;;;;;;0.40;0.23;;;;;;;15.44;100.00;100419.78;5000564;28;20453;-54
2021/09/25 08:52:41;;;;;;;0.40;0.20;;;;;;;15.72;100.00;100411.34;5002376;28;20486;-54
2021/09/25 08:55:11;;;;;;;0.57;0.57;;;;;;;15.90;100.00;100413.16;4999582;28;20499;-54
2021/09/25 08:57:42;;;;;;;0.40;0.30;;;;;;;16.30;100.00;100412.03;5011531;28;20575;-54
2021/09/25 09:00:33;;;;;;;0.40;0.30;;;;;;;16.40;100.00;100415.13;4999294;28;20453;-54
2021/09/25 09:03:25;;;;;;;4.20;2.10;;;;;;;16.62;100.00;100414.91;4999768;28;20453;-53
2021/09/25 09:05:55;;;;;;;0.87;0.87;;;;;;;16.95;100.00;100423.03;5001169;28;20470;-54
2021/09/25 09:08:23;;;;;;;0.40;0.20;;;;;;;16.97;100.00;100419.31;5006121;28;20449;-54
2021/09/25 09:10:50;;;;;;;0.40;0.20;;;;;;;16.93;100.00;100414.22;5006082;28;20928;-54
2021/09/25 09:13:17;;;;;;;2.20;2.00;;;;;;;17.16;100.00;100412.03;4999883;28;20452;-54
2021/09/25 09:15:49;;;;;;;0.40;0.20;;;;;;;17.44;100.00;100411.41;4999964;28;20897;-54
2021/09/25 09:18:18;;;;;;;0.40;0.20;;;;;;;17.34;100.00;100412.84;4999890;28;20599;-54
2021/09/25 09:21:04;;;;;;;0.60;0.57;;;;;;;17.45;100.00;100405.06;4999118;28;20449;-54
2021/09/25 09:23:33;;;;;;;1.33;0.87;;;;;;;17.64;100.00;100406.72;5002808;28;20453;-54
2021/09/25 09:26:01;;;;;;;0.40;0.30;;;;;;;17.74;99.49;100403.47;5005872;28;20918;-54
2021/09/25 09:28:32;;;;;;;0.50;0.30;;;;;;;17.91;98.87;100404.34;5003538;28;20453;-54
2021/09/25 09:31:02;;;;;;;0.40;0.30;;;;;;;18.14;98.29;100394.97;4997370;28;20445;-54
2021/09/25 09:33:30;;;;;;;0.40;0.20;;;;;;;18.57;97.39;100395.97;5004732;28;20506;-54
2021/09/25 09:36:11;;;;;;;0.40;0.30;;;;;;;18.50;96.61;100389.22;4999251;28;20508;-54
2021/09/25 09:38:49;;;;;;;0.43;0.30;;;;;;;18.53;96.97;100392.63;4998971;28;21093;-54
2021/09/25 09:41:18;;;;;;;1.50;1.50;;;;;;;18.87;96.11;100388.75;5003069;28;20607;-55
2021/09/25 09:43:46;;;;;;;0.50;0.30;;;;;;;19.08;94.53;100383.88;5005732;28;20457;-54
2021/09/25 09:46:13;;;;;;;2.60;2.10;;;;;;;18.72;94.77;100370.84;5002706;28;20489;-54
2021/09/25 09:48:42;;;;;;;0.40;0.20;;;;;;;18.76;94.88;100367.00;4998980;28;20444;-53
2021/09/25 09:51:09;;;;;;;0.40;0.20;;;;;;;18.75;94.65;100370.66;5009066;28;20980;-54
2021/09/25 09:53:45;;;;;;;0.40;0.20;;;;;;;18.77;94.77;100373.25;5012168;28;20460;-54
2021/09/25 09:56:19;;;;;;;0.50;0.40;;;;;;;19.10;94.86;100381.09;5008230;28;20448;-54
2021/09/25 09:59:04;;;;;;;0.50;0.40;;;;;;;18.69;96.45;100375.56;5009306;28;20503;-54
2021/09/25 10:01:30;;;;;;;0.80;0.50;;;;;;;18.99;94.30;100370.97;5009732;28;20487;-55
2021/09/25 10:03:59;;;;;;;0.53;0.53;;;;;;;19.47;93.10;100366.16;5004706;28;20484;-55
2021/09/25 10:06:26;;;;;;;0.40;0.20;;;;;;;19.45;91.14;100362.66;5002468;28;21016;-55
2021/09/25 10:08:54;;;;;;;0.50;0.50;;;;;;;19.55;91.33;100353.06;5007230;28;20449;-54
2021/09/25 10:11:24;;;;;;;0.40;0.20;;;;;;;19.53;90.11;100361.22;5009381;28;20448;-54
2021/09/25 10:13:53;;;;;;;0.67;0.67;;;;;;;19.61;89.50;100347.28;5005520;28;20492;-55
2021/09/25 10:16:21;;;;;;;0.50;0.30;;;;;;;19.73;89.60;100351.00;5002461;28;20479;-54
2021/09/25 10:18:48;;;;;;;0.40;0.20;;;;;;;19.91;88.61;100357.03;5005434;28;20489;-54
2021/09/25 10:21:15;;;;;;;0.40;0.20;;;;;;;19.90;88.02;100356.16;5008940;28;20453;-54
2021/09/25 10:23:50;;;;;;;2.10;1.90;;;;;;;20.00;87.57;100353.69;5006382;28;20499;-54
2021/09/25 10:26:18;;;;;;;0.53;0.53;;;;;;;20.21;87.06;100336.09;5002203;28;20452;-53
2021/09/25 10:29:05;;;;;;;0.83;0.83;;;;;;;20.42;85.74;100344.56;5003535;28;20449;-55
2021/09/25 10:31:32;;;;;;;0.50;0.40;;;;;;;20.67;85.67;100331.09;4999465;28;20450;-53
2021/09/25 10:34:07;;;;;;;0.40;0.30;;;;;;;20.73;83.79;100335.22;5008653;28;20452;-55
2021/09/25 10:37:04;;;;;;;0.40;0.20;;;;;;;20.53;84.76;100335.75;5005445;28;20498;-54
2021/09/25 10:39:36;;;;;;;0.40;0.20;;;;;;;20.80;84.61;100331.09;4982327;28;20484;-54
2021/09/25 10:42:10;;;;;;;0.50;0.40;;;;;;;21.20;83.17;100337.25;5001688;28;20531;-55
2021/09/25 10:44:52;;;;;;;2.10;1.50;;;;;;;21.08;80.53;100332.72;5006290;28;20465;-55
2021/09/25 10:47:24;;;;;;;1.73;1.33;;;;;;;21.13;79.81;100329.72;5008489;28;20806;-54
2021/09/25 10:49:57;;;;;;;0.40;0.20;;;;;;;21.08;79.34;100324.63;5001690;28;20449;-54
2021/09/25 10:52:55;;;;;;;0.40;0.40;;;;;;;21.05;80.06;100324.84;4990140;28;20518;-54
2021/09/25 10:55:28;;;;;;;0.40;0.20;;;;;;;20.85;81.30;100323.56;4979530;28;20510;-55
2021/09/25 10:58:23;;;;;;;0.93;0.93;;;;;;;20.81;81.88;100322.03;5013487;28;20484;-50
2021/09/25 11:00:52;;;;;;;0.40;0.20;;;;;;;21.19;80.75;100313.91;5010965;28;20456;-50
2021/09/25 11:03:45;;;;;;;0.60;0.60;;;;;;;21.37;79.32;100318.97;5001033;28;20452;-50
2021/09/25 11:06:25;;;;;;;0.50;0.30;;;;;;;21.07;79.59;100314.78;5001601;28;20463;-50
2021/09/25 11:08:55;;;;;;;0.40;0.30;;;;;;;21.48;79.29;100317.22;5005612;28;20420;-52
2021/09/25 11:11:41;;;;;;;0.63;0.60;;;;;;;21.63;78.09;100314.34;5007960;28;20477;-50
2021/09/25 11:16:57;;;;;;;0.50;0.40;;;;;;;21.30;78.25;100302.34;5013302;28;20477;-53
2021/09/25 11:19:24;;;;;;;0.40;0.20;;;;;;;21.66;76.02;100308.75;5000051;28;20444;-54
2021/09/25 11:22:09;;;;;;;0.40;0.20;;;;;;;21.39;77.69;100312.50;5014288;28;20507;-55
2021/09/25 11:24:42;;;;;;;3.37;0.63;;;;;;;21.78;77.12;100307.78;5012901;28;20515;-55
2021/09/25 11:27:14;;;;;;;1.17;1.17;;;;;;;21.76;77.88;100312.47;5014341;28;20448;-54